Terminal Aerodrome Forecast
Issued by NWS

Home | Current Version | Previous Version | Text Only | Print | Product List | Glossary On
Versions: 1 2 3 4 5 6 7 8 9 10 11 12
415
FTUS43 KIND 260525
TAFHUF
TAF
KHUF 260525Z 2606/2706 15008KT P6SM -SHRA OVC040
      TEMPO 2606/2610 5SM BR
     FM261000 17007KT 6SM -SHRA OVC015
     FM261200 18007KT P6SM VCSH OVC010
     FM261500 19011G19KT P6SM VCSH OVC030
     FM261700 20011G20KT P6SM VCSH OVC035
     FM262000 22012KT P6SM VCSH BKN025
     FM270100 23007KT P6SM BKN040=

USA.gov is the U.S. government's official web portal to all federal, state and local government web resources and services.